createdAt,value
2019-01-31T08:16:28.113Z,10.67
2019-01-31T08:18:56.577Z,12.23
2019-01-31T08:21:25.112Z,10.63
2019-01-31T08:23:53.793Z,11.37
2019-01-31T08:26:22.238Z,12.07
2019-01-31T08:28:50.764Z,15.23
2019-01-31T08:31:19.292Z,14.63
2019-01-31T08:33:47.733Z,12.43
2019-01-31T08:36:16.323Z,16.50
2019-01-31T08:38:44.763Z,12.47
2019-01-31T08:41:13.347Z,14.07
2019-01-31T08:43:41.781Z,14.23
2019-01-31T08:46:10.231Z,14.03
2019-01-31T08:48:38.761Z,13.23
2019-01-31T08:51:07.279Z,12.27
2019-01-31T08:53:35.807Z,15.00
2019-01-31T08:56:04.575Z,14.23
2019-01-31T08:58:33.068Z,12.57
2019-01-31T09:01:01.601Z,15.77
2019-01-31T09:03:30.085Z,16.53
2019-01-31T09:05:58.654Z,16.00
2019-01-31T09:08:27.103Z,17.57
2019-01-31T09:10:55.547Z,15.07
2019-01-31T09:13:25.128Z,15.00
2019-01-31T09:15:53.634Z,11.40
2019-01-31T09:18:22.086Z,16.10
2019-01-31T09:20:59.639Z,12.27
2019-01-31T09:23:34.007Z,16.40
2019-01-31T09:26:11.254Z,13.67
2019-01-31T09:29:02.605Z,12.03
2019-01-31T09:32:04.566Z,10.93
2019-01-31T09:34:36.170Z,16.37
2019-01-31T09:37:27.486Z,11.93
2019-01-31T09:40:15.391Z,12.87
2019-01-31T09:42:49.867Z,13.20
2019-01-31T09:45:27.377Z,13.47
2019-01-31T09:48:16.725Z,11.10
2019-01-31T09:51:10.823Z,13.93
2019-01-31T09:53:48.159Z,9.73
2019-01-31T09:56:46.892Z,10.73
2019-01-31T09:59:35.991Z,12.53
2019-01-31T10:02:24.189Z,11.77
2019-01-31T10:05:24.884Z,11.17
2019-01-31T10:08:08.183Z,9.80
2019-01-31T10:10:48.104Z,9.67
2019-01-31T10:13:51.623Z,9.50
2019-01-31T10:16:29.048Z,10.67
2019-01-31T10:19:23.458Z,10.90
2019-01-31T10:22:13.626Z,9.77
2019-01-31T10:24:45.260Z,8.30
2019-01-31T10:27:39.888Z,8.53
2019-01-31T10:30:43.553Z,12.27
2019-01-31T10:33:29.823Z,10.53
2019-01-31T10:36:21.027Z,11.43
2019-01-31T10:39:09.142Z,9.20
2019-01-31T10:41:45.857Z,10.83
2019-01-31T10:44:44.548Z,12.13
2019-01-31T10:47:31.245Z,10.13
2019-01-31T10:50:17.996Z,10.20
2019-01-31T10:53:07.809Z,7.80
2019-01-31T10:55:42.315Z,8.60
2019-01-31T10:58:25.132Z,9.03
2019-01-31T11:01:08.834Z,9.17
2019-01-31T11:03:43.266Z,10.17
2019-01-31T11:06:23.782Z,9.33
2019-01-31T11:09:17.892Z,9.23
2019-01-31T11:12:01.379Z,9.43
2019-01-31T11:14:35.855Z,8.30
2019-01-31T11:17:19.379Z,8.57
2019-01-31T11:20:03.183Z,8.63
2019-01-31T11:22:43.044Z,10.57
2019-01-31T11:25:31.032Z,11.20
2019-01-31T11:28:33.034Z,9.60
2019-01-31T11:31:19.768Z,8.90
2019-01-31T11:33:59.838Z,9.50
2019-01-31T11:36:31.440Z,10.40
2019-01-31T11:39:21.443Z,11.27
2019-01-31T11:41:59.807Z,9.53
2019-01-31T11:44:46.323Z,43.43
2019-01-31T11:47:30.115Z,10.37
2019-01-31T11:50:07.587Z,12.47
2019-01-31T11:52:57.388Z,12.97
2019-01-31T11:55:31.941Z,12.33
2019-01-31T11:58:26.003Z,9.67
2019-01-31T12:00:54.579Z,10.60
2019-01-31T12:03:23.122Z,8.90
2019-01-31T12:05:51.571Z,9.90
2019-01-31T12:08:20.060Z,9.77
2019-01-31T12:10:48.510Z,11.50
2019-01-31T12:13:23.495Z,13.63
2019-01-31T12:15:47.127Z,11.90
2019-01-31T12:18:15.613Z,12.43
2019-01-31T12:20:44.127Z,12.53
2019-01-31T12:23:12.625Z,13.47
2019-01-31T12:25:42.710Z,11.17
2019-01-31T12:28:11.311Z,14.43
2019-01-31T12:30:42.798Z,12.30
2019-01-31T12:33:11.235Z,12.67
2019-01-31T12:35:39.751Z,13.50
2019-01-31T12:38:08.337Z,10.10
2019-01-31T12:40:36.942Z,11.70
2019-01-31T12:43:05.504Z,13.13
2019-01-31T12:45:33.951Z,11.30
2019-01-31T12:48:02.461Z,10.90
2019-01-31T12:50:31.039Z,13.73
2019-01-31T12:52:59.619Z,13.83
2019-01-31T12:55:28.123Z,15.20
2019-01-31T12:57:56.652Z,14.50
2019-01-31T13:00:26.916Z,13.63
2019-01-31T13:02:55.707Z,14.17
2019-01-31T13:05:24.142Z,14.57
2019-01-31T13:07:52.691Z,12.23
2019-01-31T13:10:21.125Z,14.40
2019-01-31T13:12:50.435Z,12.47
2019-01-31T13:15:18.999Z,15.27
2019-01-31T13:17:47.683Z,14.07
2019-01-31T13:20:18.822Z,13.60
2019-01-31T13:22:48.811Z,12.70
2019-01-31T13:25:18.393Z,13.63
2019-01-31T13:27:46.951Z,18.00
2019-01-31T13:30:18.290Z,13.40
2019-01-31T13:32:46.882Z,15.87
2019-01-31T13:35:16.250Z,15.67
2019-01-31T13:37:44.954Z,12.20
2019-01-31T13:40:18.947Z,11.97
2019-01-31T13:42:47.555Z,11.57
2019-01-31T13:45:24.554Z,12.47
2019-01-31T13:47:53.111Z,13.87
2019-01-31T13:50:21.681Z,12.67
2019-01-31T13:52:50.098Z,14.70
2019-01-31T13:55:24.019Z,15.37
2019-01-31T13:57:52.452Z,15.00
2019-01-31T14:00:25.128Z,15.47
2019-01-31T14:02:53.794Z,18.37
2019-01-31T14:05:22.800Z,17.10
2019-01-31T14:07:51.469Z,21.03
2019-01-31T14:10:22.380Z,19.37
2019-01-31T14:12:51.139Z,22.40
2019-01-31T14:15:33.094Z,17.10
2019-01-31T14:17:55.271Z,20.37
2019-01-31T14:20:26.064Z,20.20
2019-01-31T14:22:54.628Z,20.37
2019-01-31T14:25:23.364Z,19.47
2019-01-31T14:27:51.928Z,22.30
2019-01-31T14:30:25.906Z,23.20
2019-01-31T14:32:54.594Z,23.07
2019-01-31T14:35:24.055Z,25.10
2019-01-31T14:37:52.770Z,23.83
2019-01-31T14:40:22.675Z,29.60
2019-01-31T14:42:51.279Z,31.43
2019-01-31T14:45:19.996Z,34.40
2019-01-31T14:47:48.420Z,33.13
2019-01-31T14:50:28.666Z,31.80
2019-01-31T14:52:57.275Z,33.30
2019-01-31T14:55:25.872Z,33.90
2019-01-31T14:57:54.575Z,31.80
2019-01-31T15:00:26.075Z,32.07
2019-01-31T15:02:54.532Z,36.70
2019-01-31T15:05:23.103Z,35.03
2019-01-31T15:07:51.680Z,41.40
2019-01-31T15:10:25.770Z,48.10
2019-01-31T15:12:54.465Z,47.57
2019-01-31T15:15:23.061Z,46.67
2019-01-31T15:17:53.187Z,43.07
2019-01-31T15:20:35.830Z,48.90
2019-01-31T15:22:54.592Z,43.10
2019-01-31T15:25:23.118Z,43.70
2019-01-31T15:27:51.816Z,44.87
2019-01-31T15:30:23.414Z,45.93
2019-01-31T15:32:52.281Z,47.43
2019-01-31T15:35:20.835Z,46.47
2019-01-31T15:37:49.354Z,44.57
2019-01-31T15:40:21.117Z,41.37
2019-01-31T15:42:50.177Z,39.10
2019-01-31T15:45:18.822Z,38.77
2019-01-31T15:47:47.617Z,38.37
2019-01-31T15:50:21.260Z,36.83
2019-01-31T15:52:49.826Z,42.17
2019-01-31T15:55:21.469Z,36.90
2019-01-31T15:57:50.152Z,39.30
2019-01-31T16:00:29.184Z,35.33
2019-01-31T16:02:57.717Z,34.57
2019-01-31T16:05:26.219Z,33.43
2019-01-31T16:07:54.740Z,36.27
2019-01-31T16:10:23.341Z,33.00
2019-01-31T16:12:51.888Z,32.83
2019-01-31T16:15:20.837Z,36.33
2019-01-31T16:17:52.330Z,42.83
2019-01-31T16:20:19.556Z,31.37
2019-01-31T16:22:48.140Z,31.13
2019-01-31T16:25:16.587Z,30.83
2019-01-31T16:27:45.030Z,36.73
2019-01-31T16:30:20.964Z,32.37
2019-01-31T16:32:49.672Z,28.60
2019-01-31T16:35:19.442Z,30.33
2019-01-31T16:37:49.715Z,29.13
2019-01-31T16:40:18.903Z,32.10
2019-01-31T16:42:47.686Z,25.70
2019-01-31T16:45:19.734Z,30.10
2019-01-31T16:47:48.301Z,26.80
2019-01-31T16:50:21.998Z,27.07
2019-01-31T16:52:50.679Z,26.60
2019-01-31T16:55:21.923Z,26.13
2019-01-31T16:57:50.447Z,25.70
2019-01-31T17:00:24.618Z,25.50
2019-01-31T17:02:53.289Z,29.27
2019-01-31T17:05:24.562Z,27.13
2019-01-31T17:07:53.355Z,22.17
2019-01-31T17:10:22.055Z,27.20
2019-01-31T17:12:50.498Z,24.80
2019-01-31T17:15:19.911Z,29.10
2019-01-31T17:17:48.627Z,26.77
2019-01-31T17:20:19.734Z,23.63
2019-01-31T17:22:48.335Z,22.23
2019-01-31T17:25:17.121Z,25.47
2019-01-31T17:27:45.658Z,21.97
2019-01-31T17:30:19.554Z,25.57
2019-01-31T17:32:48.109Z,23.37
2019-01-31T17:35:16.755Z,25.03
2019-01-31T17:37:45.271Z,25.33
2019-01-31T17:40:22.770Z,31.27
2019-01-31T17:42:51.301Z,32.57
2019-01-31T17:45:29.889Z,33.10
2019-01-31T17:47:51.523Z,32.10
2019-01-31T17:50:20.109Z,36.13
2019-01-31T17:52:48.640Z,29.37
2019-01-31T17:55:19.630Z,28.93
2019-01-31T17:57:48.169Z,26.67
2019-01-31T18:00:38.094Z,25.63
2019-01-31T18:03:07.813Z,22.63
2019-01-31T18:05:36.411Z,24.60
2019-01-31T18:08:09.353Z,22.27
2019-01-31T18:10:35.830Z,24.17
2019-01-31T18:13:05.661Z,23.10
2019-01-31T18:15:41.507Z,25.03
2019-01-31T18:18:05.170Z,21.07
2019-01-31T18:20:33.747Z,22.53
2019-01-31T18:23:02.366Z,27.03
2019-01-31T18:25:30.813Z,24.60
2019-01-31T18:27:59.355Z,19.57
2019-01-31T18:30:33.307Z,21.97
2019-01-31T18:33:01.955Z,19.07
2019-01-31T18:35:30.478Z,23.47
2019-01-31T18:37:59.015Z,22.30
2019-01-31T18:40:29.793Z,23.33
2019-01-31T18:42:58.419Z,20.00
2019-01-31T18:45:31.766Z,23.80
2019-01-31T18:48:01.791Z,23.97
2019-01-31T18:50:41.015Z,21.07
2019-01-31T18:53:09.944Z,22.03
2019-01-31T18:55:38.950Z,21.27
2019-01-31T18:58:07.814Z,22.60
2019-01-31T19:00:41.909Z,20.33
2019-01-31T19:03:10.837Z,22.90
2019-01-31T19:05:39.756Z,21.73
2019-01-31T19:08:09.126Z,18.93
2019-01-31T19:10:43.395Z,19.63
2019-01-31T19:13:08.344Z,19.27
2019-01-31T19:15:37.272Z,21.03
2019-01-31T19:18:06.557Z,18.83
2019-01-31T19:20:35.723Z,17.07
2019-01-31T19:23:06.547Z,16.23
2019-01-31T19:25:36.970Z,19.73
2019-01-31T19:28:06.373Z,22.57
2019-01-31T19:30:36.747Z,16.77
2019-01-31T19:33:06.416Z,21.10
2019-01-31T19:35:37.912Z,21.80
2019-01-31T19:38:07.495Z,20.93
2019-01-31T19:40:38.374Z,22.27
2019-01-31T19:43:06.973Z,22.80
2019-01-31T19:45:39.442Z,28.90
2019-01-31T19:48:08.419Z,26.27
2019-01-31T19:50:37.350Z,25.83
2019-01-31T19:53:06.062Z,22.23
2019-01-31T19:55:35.014Z,21.77
2019-01-31T19:58:03.817Z,21.07
2019-01-31T20:00:32.332Z,19.43
2019-01-31T20:03:00.986Z,24.10
2019-01-31T20:05:29.680Z,18.77
2019-01-31T20:07:58.485Z,21.73
2019-01-31T20:10:29.271Z,19.23
2019-01-31T20:12:58.074Z,16.33
2019-01-31T20:15:26.778Z,19.03
2019-01-31T20:17:55.527Z,24.53
2019-01-31T20:20:28.531Z,26.63
2019-01-31T20:22:57.938Z,18.57
2019-01-31T20:25:27.023Z,16.73
2019-01-31T20:27:55.551Z,15.63
2019-01-31T20:30:27.172Z,17.53
2019-01-31T20:32:56.278Z,18.10
2019-01-31T20:35:25.146Z,21.23
2019-01-31T20:37:54.162Z,18.13
2019-01-31T20:40:28.426Z,27.43
2019-01-31T20:42:57.259Z,21.37
2019-01-31T20:45:26.000Z,25.17
2019-01-31T20:47:55.667Z,21.07
2019-01-31T20:50:26.831Z,20.13
2019-01-31T20:52:55.667Z,18.23
2019-01-31T20:55:24.738Z,23.67
2019-01-31T20:57:53.234Z,37.10
2019-01-31T21:00:28.956Z,25.00
2019-01-31T21:02:57.380Z,21.80
2019-01-31T21:05:26.561Z,31.37
2019-01-31T21:07:55.148Z,32.47
2019-01-31T21:10:26.354Z,40.07
2019-01-31T21:12:54.279Z,52.33
2019-01-31T21:15:26.207Z,46.13
2019-01-31T21:17:54.883Z,22.63
2019-01-31T21:20:26.395Z,34.20
2019-01-31T21:22:55.855Z,28.20
2019-01-31T21:25:25.963Z,24.23
2019-01-31T21:27:54.467Z,22.53
2019-01-31T21:30:28.203Z,25.87
2019-01-31T21:32:56.710Z,22.60
2019-01-31T21:35:26.308Z,22.60
2019-01-31T21:37:54.884Z,24.50
2019-01-31T21:40:25.207Z,19.27
2019-01-31T21:42:53.723Z,18.93
2019-01-31T21:45:23.399Z,18.43
2019-01-31T21:47:51.862Z,26.37
2019-01-31T21:50:23.111Z,22.50
2019-01-31T21:52:51.704Z,26.57
2019-01-31T21:55:20.359Z,20.53
2019-01-31T21:57:48.887Z,19.83
2019-01-31T22:00:26.234Z,19.57
2019-01-31T22:02:55.160Z,17.17
2019-01-31T22:05:23.735Z,16.60
2019-01-31T22:07:52.201Z,17.10
2019-01-31T22:10:21.175Z,16.10
2019-01-31T22:12:49.812Z,16.30
2019-01-31T22:15:24.207Z,13.47
2019-01-31T22:17:52.903Z,15.40
2019-01-31T22:20:21.488Z,15.57
2019-01-31T22:22:49.950Z,12.80
2019-01-31T22:25:20.836Z,14.17
2019-01-31T22:27:49.288Z,12.73
2019-01-31T22:30:29.247Z,11.83
2019-01-31T22:32:57.688Z,12.20
2019-01-31T22:35:26.220Z,10.87
2019-01-31T22:37:54.738Z,10.80
2019-01-31T22:40:23.247Z,10.87
2019-01-31T22:42:51.767Z,10.80
2019-01-31T22:45:22.259Z,12.50
2019-01-31T22:47:50.756Z,13.13
2019-01-31T22:50:21.240Z,10.67
2019-01-31T22:52:49.914Z,12.00
2019-01-31T22:55:23.540Z,11.03
2019-01-31T22:57:52.102Z,10.50
2019-01-31T23:00:43.420Z,11.33
2019-01-31T23:03:12.075Z,11.57
2019-01-31T23:05:40.551Z,9.53
2019-01-31T23:08:09.118Z,9.87
2019-01-31T23:10:37.639Z,11.10
2019-01-31T23:13:06.068Z,9.47
2019-01-31T23:15:34.580Z,10.07
2019-01-31T23:18:03.008Z,10.53
2019-01-31T23:20:31.519Z,9.83
2019-01-31T23:22:59.959Z,10.57
2019-01-31T23:25:39.325Z,9.93
2019-01-31T23:27:58.543Z,8.47
2019-01-31T23:30:27.067Z,8.13
2019-01-31T23:32:55.484Z,7.97
2019-01-31T23:35:23.950Z,9.53
2019-01-31T23:37:52.419Z,8.23
2019-01-31T23:40:20.871Z,10.67
2019-01-31T23:42:49.319Z,9.10
2019-01-31T23:45:19.518Z,9.07
2019-01-31T23:47:49.195Z,8.83
2019-01-31T23:50:18.088Z,8.87
2019-01-31T23:52:46.512Z,7.73
2019-01-31T23:55:16.301Z,8.70
2019-01-31T23:57:44.795Z,7.13
